createdAt,value
2023-05-20T00:02:37.421Z,3.00
2023-05-20T00:05:05.140Z,2.92
2023-05-20T00:07:33.103Z,2.40
2023-05-20T00:12:27.894Z,2.58
2023-05-20T00:14:56.134Z,2.50
2023-05-20T00:17:23.878Z,2.65
2023-05-20T00:19:52.628Z,3.15
2023-05-20T00:22:20.118Z,2.78
2023-05-20T00:24:47.542Z,3.00
2023-05-20T00:27:14.942Z,2.65
2023-05-20T00:29:42.369Z,2.72
2023-05-20T00:32:09.878Z,2.90
2023-05-20T00:34:37.306Z,3.13
2023-05-20T00:37:06.236Z,2.80
2023-05-20T00:39:33.695Z,2.35
2023-05-20T00:42:03.333Z,3.15
2023-05-20T00:44:30.759Z,2.50
2023-05-20T00:46:58.396Z,2.63
2023-05-20T00:49:25.988Z,2.90
2023-05-20T00:51:53.495Z,3.53
2023-05-20T00:54:22.874Z,3.10
2023-05-20T00:56:50.394Z,3.13
2023-05-20T00:59:17.837Z,3.15
2023-05-20T01:01:45.268Z,2.60
2023-05-20T01:04:12.792Z,2.97
2023-05-20T01:06:40.535Z,3.30
2023-05-20T01:09:08.386Z,3.13
2023-05-20T01:11:39.804Z,3.03
2023-05-20T01:14:08.625Z,3.30
2023-05-20T01:16:36.515Z,3.72
2023-05-20T01:21:32.215Z,3.42
2023-05-20T01:24:01.865Z,3.08
2023-05-20T01:26:29.353Z,3.05
2023-05-20T01:28:57.878Z,2.85
2023-05-20T01:31:26.805Z,2.80
2023-05-20T01:33:58.007Z,2.83
2023-05-20T01:36:26.258Z,3.05
2023-05-20T01:38:54.155Z,2.80
2023-05-20T01:41:24.738Z,3.10
2023-05-20T01:43:52.236Z,2.80
2023-05-20T01:46:20.553Z,3.30
2023-05-20T01:48:49.398Z,3.03
2023-05-20T01:51:17.819Z,2.65
2023-05-20T01:53:45.269Z,3.25
2023-05-20T01:56:12.701Z,3.38
2023-05-20T01:58:41.545Z,3.45
2023-05-20T02:01:09.047Z,3.45
2023-05-20T02:03:36.507Z,3.70
2023-05-20T02:06:04.070Z,3.72
2023-05-20T02:08:31.501Z,2.80
2023-05-20T02:11:00.504Z,3.65
2023-05-20T02:13:28.500Z,3.28
2023-05-20T02:15:57.555Z,3.33
2023-05-20T02:18:26.526Z,3.90
2023-05-20T02:20:53.996Z,3.25
2023-05-20T02:23:21.542Z,3.47
2023-05-20T02:25:49.016Z,3.72
2023-05-20T02:28:17.160Z,3.42
2023-05-20T02:30:44.685Z,3.25
2023-05-20T02:33:13.899Z,3.30
2023-05-20T02:35:41.441Z,3.03
2023-05-20T02:38:09.262Z,3.40
2023-05-20T02:40:37.697Z,3.42
2023-05-20T02:43:05.097Z,3.63
2023-05-20T02:45:34.858Z,3.15
2023-05-20T02:48:02.755Z,3.58
2023-05-20T02:50:33.487Z,3.00
2023-05-20T02:53:00.930Z,3.10
2023-05-20T02:55:28.780Z,3.78
2023-05-20T03:00:24.545Z,3.97
2023-05-20T03:02:52.130Z,3.40
2023-05-20T03:05:19.666Z,3.15
2023-05-20T03:07:48.737Z,3.53
2023-05-20T03:10:16.299Z,3.40
2023-05-20T03:12:44.959Z,3.13
2023-05-20T03:15:12.567Z,3.33
2023-05-20T03:17:40.055Z,3.85
2023-05-20T03:20:08.440Z,3.83
2023-05-20T03:22:36.151Z,3.40
2023-05-20T03:30:01.580Z,3.75
2023-05-20T03:32:30.013Z,3.22
2023-05-20T03:34:58.061Z,3.85
2023-05-20T03:37:25.738Z,3.72
2023-05-20T03:39:53.252Z,3.90
2023-05-20T03:42:20.927Z,3.92
2023-05-20T03:44:48.413Z,3.97
2023-05-20T03:47:18.289Z,3.90
2023-05-20T03:49:46.079Z,3.92
2023-05-20T03:52:13.578Z,3.33
2023-05-20T03:54:41.035Z,5.22
2023-05-20T03:57:10.481Z,4.35
2023-05-20T03:59:38.086Z,4.10
2023-05-20T04:02:06.256Z,3.75
2023-05-20T04:04:35.042Z,3.65
2023-05-20T04:07:03.132Z,3.90
2023-05-20T04:11:57.948Z,3.70
2023-05-20T04:14:25.623Z,3.70
2023-05-20T04:16:53.066Z,3.58
2023-05-20T04:19:20.813Z,4.80
2023-05-20T04:21:49.762Z,4.05
2023-05-20T04:24:17.239Z,3.65
2023-05-20T04:26:44.954Z,4.15
2023-05-20T04:29:12.676Z,3.15
2023-05-20T04:31:40.291Z,4.22
2023-05-20T04:34:09.142Z,4.30
2023-05-20T04:36:38.163Z,4.22
2023-05-20T04:39:08.350Z,4.05
2023-05-20T04:41:36.392Z,4.05
2023-05-20T04:46:31.692Z,3.80
2023-05-20T04:48:59.555Z,3.78
2023-05-20T04:51:27.366Z,3.78
2023-05-20T04:53:54.805Z,3.67
2023-05-20T04:56:23.521Z,3.63
2023-05-20T04:58:51.683Z,4.43
2023-05-20T05:01:20.451Z,4.28
2023-05-20T05:06:15.189Z,3.58
2023-05-20T05:08:42.749Z,3.83
2023-05-20T05:11:10.307Z,3.88
2023-05-20T05:13:39.096Z,3.72
2023-05-20T05:16:07.279Z,3.40
2023-05-20T05:21:02.872Z,3.75
2023-05-20T05:23:30.390Z,4.60
2023-05-20T05:25:57.950Z,4.22
2023-05-20T05:28:25.739Z,4.00
2023-05-20T05:30:56.339Z,4.20
2023-05-20T05:33:23.915Z,3.42
2023-05-20T05:38:19.018Z,3.83
2023-05-20T05:40:47.452Z,3.33
2023-05-20T05:43:16.191Z,4.10
2023-05-20T05:45:45.112Z,3.42
2023-05-20T05:48:13.878Z,3.85
2023-05-20T05:50:44.647Z,3.42
2023-05-20T05:53:12.085Z,3.92
2023-05-20T05:55:41.645Z,3.63
2023-05-20T05:58:09.175Z,3.80
2023-05-20T06:00:37.850Z,3.97
2023-05-20T06:03:05.482Z,3.65
2023-05-20T06:05:37.801Z,4.18
2023-05-20T06:08:05.664Z,3.90
2023-05-20T06:10:34.781Z,4.95
2023-05-20T06:13:02.196Z,3.67
2023-05-20T06:15:29.805Z,3.67
2023-05-20T06:17:57.697Z,3.72
2023-05-20T06:20:26.508Z,3.55
2023-05-20T06:22:55.265Z,4.43
2023-05-20T06:25:25.738Z,3.85
2023-05-20T06:27:53.248Z,4.30
2023-05-20T06:30:22.160Z,3.70
2023-05-20T06:32:49.911Z,3.70
2023-05-20T06:37:45.066Z,4.60
2023-05-20T06:40:14.254Z,3.95
2023-05-20T06:42:41.872Z,3.67
2023-05-20T06:45:10.311Z,3.97
2023-05-20T06:47:54.420Z,3.90
2023-05-20T06:50:21.944Z,4.97
2023-05-20T06:52:49.450Z,3.60
2023-05-20T06:55:19.455Z,4.38
2023-05-20T06:57:47.589Z,4.07
2023-05-20T07:00:17.250Z,4.32
2023-05-20T07:02:46.133Z,4.70
2023-05-20T07:05:15.203Z,4.20
2023-05-20T07:07:42.594Z,4.40
2023-05-20T07:10:10.320Z,4.65
2023-05-20T07:12:39.150Z,4.05
2023-05-20T07:15:07.022Z,4.47
2023-05-20T07:17:35.110Z,4.72
2023-05-20T07:20:04.243Z,4.40
2023-05-20T07:22:32.518Z,4.55
2023-05-20T07:25:12.319Z,4.95
2023-05-20T07:27:41.258Z,5.10
2023-05-20T07:30:09.583Z,4.50
2023-05-20T07:32:38.037Z,5.00
2023-05-20T07:35:07.345Z,5.22
2023-05-20T07:37:35.439Z,4.35
2023-05-20T07:40:05.372Z,4.95
2023-05-20T07:42:32.975Z,4.95
2023-05-20T07:45:03.358Z,4.22
2023-05-20T07:47:32.471Z,5.22
2023-05-20T07:50:00.598Z,4.75
2023-05-20T07:52:29.517Z,4.90
2023-05-20T07:54:57.600Z,4.40
2023-05-20T07:57:25.142Z,4.75
2023-05-20T07:59:52.586Z,4.88
2023-05-20T08:02:21.774Z,6.75
2023-05-20T08:04:49.806Z,5.13
2023-05-20T08:07:18.334Z,5.43
2023-05-20T08:09:52.569Z,5.28
2023-05-20T08:12:21.336Z,5.15
2023-05-20T08:14:48.792Z,5.65
2023-05-20T08:17:16.317Z,5.97
2023-05-20T08:19:45.100Z,5.88
2023-05-20T08:22:14.800Z,6.45
2023-05-20T08:24:42.223Z,6.15
2023-05-20T08:27:10.788Z,6.20
2023-05-20T08:29:38.237Z,6.03
2023-05-20T08:32:06.824Z,6.22
2023-05-20T08:34:36.813Z,5.95
2023-05-20T08:37:05.746Z,6.60
2023-05-20T08:39:33.136Z,6.80
2023-05-20T08:42:01.154Z,6.93
2023-05-20T08:44:28.875Z,7.15
2023-05-20T08:46:57.789Z,6.70
2023-05-20T08:49:25.511Z,6.20
2023-05-20T08:51:52.943Z,6.95
2023-05-20T08:54:23.840Z,6.90
2023-05-20T08:56:54.008Z,6.90
2023-05-20T08:59:21.991Z,6.40
2023-05-20T09:01:49.562Z,6.70
2023-05-20T09:04:17.528Z,6.18
2023-05-20T09:09:12.838Z,7.28
2023-05-20T09:11:41.746Z,8.25
2023-05-20T09:14:09.179Z,6.75
2023-05-20T09:16:36.700Z,7.00
2023-05-20T09:19:06.768Z,7.05
2023-05-20T09:21:34.200Z,7.20
2023-05-20T09:24:02.778Z,6.65
2023-05-20T09:26:30.378Z,6.57
2023-05-20T09:28:59.181Z,6.43
2023-05-20T09:31:33.140Z,7.03
2023-05-20T09:34:01.215Z,7.07
2023-05-20T09:36:29.756Z,6.43
2023-05-20T09:38:59.662Z,7.18
2023-05-20T09:41:32.111Z,6.43
2023-05-20T09:44:01.606Z,7.43
2023-05-20T09:46:29.469Z,5.65
2023-05-20T09:51:24.480Z,6.13
2023-05-20T09:53:52.897Z,5.93
2023-05-20T09:56:26.076Z,6.22
2023-05-20T09:58:58.235Z,7.07
2023-05-20T10:01:27.086Z,5.88
2023-05-20T10:03:54.827Z,6.35
2023-05-20T10:06:29.819Z,6.35
2023-05-20T10:09:02.693Z,5.95
2023-05-20T10:11:36.665Z,6.15
2023-05-20T10:14:12.938Z,6.35
2023-05-20T10:19:15.785Z,5.70
2023-05-20T10:21:43.308Z,6.60
2023-05-20T10:24:11.613Z,5.65
2023-05-20T10:26:39.476Z,6.85
2023-05-20T10:34:04.099Z,6.40
2023-05-20T10:36:32.124Z,6.43
2023-05-20T10:39:00.622Z,5.75
2023-05-20T10:41:28.586Z,5.03
2023-05-20T10:44:05.545Z,6.30
2023-05-20T10:46:48.226Z,6.00
2023-05-20T10:49:26.922Z,5.75
2023-05-20T10:51:55.500Z,5.38
2023-05-20T10:54:23.006Z,5.95
2023-05-20T10:56:54.044Z,6.45
2023-05-20T10:59:22.569Z,5.93
2023-05-20T11:01:50.150Z,6.28
2023-05-20T11:04:17.915Z,6.00
2023-05-20T11:06:53.915Z,6.20
2023-05-20T11:09:21.629Z,5.90
2023-05-20T11:11:49.155Z,5.25
2023-05-20T11:14:18.158Z,4.85
2023-05-20T11:16:46.458Z,4.75
2023-05-20T11:19:15.643Z,4.50
2023-05-20T11:21:46.460Z,4.85
2023-05-20T11:24:15.464Z,4.43
2023-05-20T11:26:42.881Z,4.40
2023-05-20T11:29:10.329Z,4.57
2023-05-20T11:31:38.646Z,5.10
2023-05-20T11:34:06.050Z,4.75
2023-05-20T11:36:33.596Z,4.70
2023-05-20T11:39:01.441Z,4.05
2023-05-20T11:43:58.113Z,3.78
2023-05-20T11:46:25.790Z,4.10
2023-05-20T11:48:54.366Z,4.38
2023-05-20T11:51:24.189Z,4.20
2023-05-20T11:53:51.615Z,3.72
2023-05-20T11:56:19.329Z,4.03
2023-05-20T12:01:22.512Z,4.18
2023-05-20T12:03:50.699Z,3.92
2023-05-20T12:06:18.341Z,4.97
2023-05-20T12:08:46.341Z,4.05
2023-05-20T12:11:13.778Z,4.30
2023-05-20T12:13:41.348Z,3.72
2023-05-20T12:16:08.854Z,3.83
2023-05-20T12:18:37.625Z,3.63
2023-05-20T12:21:05.049Z,4.13
2023-05-20T12:23:34.115Z,4.15
2023-05-20T12:26:01.795Z,4.30
2023-05-20T12:28:29.198Z,4.32
2023-05-20T12:30:56.597Z,4.40
2023-05-20T12:33:24.150Z,3.35
2023-05-20T12:35:52.890Z,3.47
2023-05-20T12:38:20.609Z,3.33
2023-05-20T12:43:15.585Z,3.22
2023-05-20T12:48:10.968Z,4.40
2023-05-20T12:50:38.459Z,3.50
2023-05-20T12:53:07.251Z,3.33
2023-05-20T12:55:34.666Z,3.63
2023-05-20T12:58:02.097Z,3.42
2023-05-20T13:00:29.456Z,3.13
2023-05-20T13:02:57.012Z,3.00
2023-05-20T13:05:24.421Z,3.25
2023-05-20T13:07:51.927Z,2.97
2023-05-20T13:10:20.649Z,3.47
2023-05-20T13:12:48.118Z,3.45
2023-05-20T13:15:16.026Z,2.92
2023-05-20T13:20:11.873Z,3.70
2023-05-20T13:22:39.284Z,3.30
2023-05-20T13:25:07.061Z,3.15
2023-05-20T13:30:04.035Z,3.85
2023-05-20T13:32:31.545Z,2.97
2023-05-20T13:34:59.618Z,2.78
2023-05-20T13:37:27.069Z,3.08
2023-05-20T13:39:54.599Z,3.03
2023-05-20T13:42:22.426Z,3.72
2023-05-20T13:47:18.492Z,3.90
2023-05-20T13:49:45.919Z,3.28
2023-05-20T13:52:13.364Z,4.05
2023-05-20T13:54:42.849Z,3.90
2023-05-20T13:57:10.276Z,4.22
2023-05-20T13:59:37.665Z,3.88
2023-05-20T14:02:05.512Z,4.13
2023-05-20T14:04:37.983Z,3.83
2023-05-20T14:09:33.125Z,3.97
2023-05-20T14:12:00.544Z,4.20
2023-05-20T14:14:27.943Z,4.82
2023-05-20T14:16:55.444Z,4.15
2023-05-20T14:19:22.861Z,4.10
2023-05-20T14:21:51.631Z,4.70
2023-05-20T14:24:20.375Z,3.95
2023-05-20T14:26:48.880Z,4.38
2023-05-20T14:29:16.405Z,4.75
2023-05-20T14:31:43.843Z,3.97
2023-05-20T14:34:11.296Z,4.65
2023-05-20T14:36:38.799Z,4.65
2023-05-20T14:39:07.670Z,5.38
2023-05-20T14:41:35.177Z,4.65
2023-05-20T14:44:02.586Z,4.30
2023-05-20T14:46:30.423Z,4.50
2023-05-20T14:51:25.173Z,4.30
2023-05-20T14:53:52.564Z,3.95
2023-05-20T14:56:21.667Z,4.03
2023-05-20T14:58:49.050Z,5.38
2023-05-20T15:01:16.500Z,4.50
2023-05-20T15:03:43.938Z,4.70
2023-05-20T15:06:11.435Z,3.92
2023-05-20T15:08:38.845Z,5.07
2023-05-20T15:11:06.269Z,5.22
2023-05-20T15:13:35.018Z,4.88
2023-05-20T15:16:02.467Z,5.97
2023-05-20T15:18:29.978Z,4.82
2023-05-20T15:20:57.363Z,5.30
2023-05-20T15:23:24.774Z,6.35
2023-05-20T15:25:52.222Z,4.75
2023-05-20T15:28:19.817Z,4.40
2023-05-20T15:30:52.450Z,4.78
2023-05-20T15:33:19.973Z,5.10
2023-05-20T15:35:47.424Z,4.78
2023-05-20T15:38:15.103Z,4.60
2023-05-20T15:40:43.591Z,4.82
2023-05-20T15:43:11.040Z,5.20
2023-05-20T15:45:38.485Z,5.18
2023-05-20T15:48:08.063Z,4.22
2023-05-20T15:50:36.142Z,4.07
2023-05-20T15:53:03.972Z,4.43
2023-05-20T15:55:31.412Z,4.20
2023-05-20T15:57:58.893Z,4.65
2023-05-20T16:00:26.529Z,4.63
2023-05-20T16:02:55.376Z,4.28
2023-05-20T16:05:25.464Z,5.75
2023-05-20T16:07:53.222Z,4.28
2023-05-20T16:10:20.610Z,4.50
2023-05-20T16:12:48.062Z,5.32
2023-05-20T16:15:15.509Z,4.45
2023-05-20T16:17:42.988Z,4.95
2023-05-20T16:20:10.926Z,4.97
2023-05-20T16:25:07.350Z,4.25
2023-05-20T16:27:34.754Z,4.65
2023-05-20T16:30:02.287Z,4.32
2023-05-20T16:32:29.779Z,4.20
2023-05-20T16:34:57.479Z,3.97
2023-05-20T16:37:24.890Z,3.63
2023-05-20T16:39:52.313Z,3.67
2023-05-20T16:42:21.116Z,4.13
2023-05-20T16:44:51.505Z,3.30
2023-05-20T16:47:19.157Z,3.45
2023-05-20T16:49:46.626Z,4.43
2023-05-20T16:52:14.165Z,4.72
2023-05-20T16:54:41.784Z,4.05
2023-05-20T16:57:11.287Z,3.83
2023-05-20T16:59:40.023Z,5.05
2023-05-20T17:02:07.477Z,4.70
2023-05-20T17:04:34.962Z,4.90
2023-05-20T17:07:02.606Z,4.50
2023-05-20T17:09:30.169Z,4.05
2023-05-20T17:11:58.140Z,4.80
2023-05-20T17:14:25.536Z,4.53
2023-05-20T17:16:54.329Z,3.78
2023-05-20T17:19:21.866Z,3.95
2023-05-20T17:21:49.385Z,4.00
2023-05-20T17:24:16.927Z,4.18
2023-05-20T17:26:44.307Z,4.25
2023-05-20T17:29:11.727Z,4.65
2023-05-20T17:31:39.133Z,4.53
2023-05-20T17:34:08.177Z,4.03
2023-05-20T17:36:35.684Z,4.45
2023-05-20T17:39:04.386Z,4.15
2023-05-20T17:41:32.817Z,4.82
2023-05-20T17:44:01.399Z,5.10
2023-05-20T17:46:28.990Z,4.50
2023-05-20T17:48:57.451Z,4.82
2023-05-20T17:51:26.187Z,5.10
2023-05-20T17:53:53.615Z,5.00
2023-05-20T17:56:21.245Z,5.40
2023-05-20T17:58:48.675Z,4.60
2023-05-20T18:01:16.361Z,5.70
2023-05-20T18:03:43.982Z,5.03
2023-05-20T18:06:11.651Z,5.85
2023-05-20T18:08:40.532Z,6.35
2023-05-20T18:11:07.969Z,6.22
2023-05-20T18:13:35.471Z,5.88
2023-05-20T18:16:02.934Z,6.35
2023-05-20T18:18:30.427Z,7.13
2023-05-20T18:20:57.880Z,7.03
2023-05-20T18:23:25.374Z,6.95
2023-05-20T18:25:54.096Z,7.13
2023-05-20T18:28:21.508Z,6.55
2023-05-20T18:30:49.208Z,7.30
2023-05-20T18:33:16.886Z,7.38
2023-05-20T18:35:44.404Z,8.52
2023-05-20T18:38:12.203Z,6.70
2023-05-20T18:40:39.642Z,6.70
2023-05-20T18:43:08.437Z,7.07
2023-05-20T18:45:36.018Z,7.50
2023-05-20T18:48:04.967Z,8.27
2023-05-20T18:50:32.592Z,7.00
2023-05-20T18:53:00.044Z,7.95
2023-05-20T18:55:28.111Z,8.57
2023-05-20T18:57:55.560Z,8.95
2023-05-20T19:00:24.507Z,9.38
2023-05-20T19:02:52.104Z,8.60
2023-05-20T19:05:20.334Z,9.15
2023-05-20T19:07:47.801Z,8.70
2023-05-20T19:10:15.544Z,8.35
2023-05-20T19:12:43.519Z,8.90
2023-05-20T19:15:11.524Z,7.72
2023-05-20T19:17:40.415Z,7.85
2023-05-20T19:20:08.546Z,8.10
2023-05-20T19:22:36.003Z,7.72
2023-05-20T19:25:03.588Z,8.40
2023-05-20T19:27:31.169Z,8.07
2023-05-20T19:29:58.632Z,8.27
2023-05-20T19:32:26.143Z,9.68
2023-05-20T19:34:54.924Z,9.38
2023-05-20T19:37:23.310Z,9.60
2023-05-20T19:39:50.886Z,9.80
2023-05-20T19:42:18.498Z,9.82
2023-05-20T19:44:46.530Z,10.43
2023-05-20T19:47:14.144Z,10.75
2023-05-20T19:49:41.608Z,9.93
2023-05-20T19:52:10.360Z,10.27
2023-05-20T19:54:37.814Z,9.57
2023-05-20T19:57:05.438Z,10.45
2023-05-20T19:59:32.901Z,11.15
2023-05-20T20:02:02.886Z,10.75
2023-05-20T20:04:30.513Z,11.52
2023-05-20T20:06:57.918Z,10.82
2023-05-20T20:09:26.958Z,11.75
2023-05-20T20:11:54.407Z,10.90
2023-05-20T20:14:22.097Z,11.43
2023-05-20T20:16:49.672Z,11.90
2023-05-20T20:19:23.022Z,11.18
2023-05-20T20:21:52.236Z,11.30
2023-05-20T20:24:19.828Z,11.88
2023-05-20T20:26:48.632Z,11.63
2023-05-20T20:29:16.206Z,11.00
2023-05-20T20:31:43.662Z,12.57
2023-05-20T20:34:11.045Z,11.68
2023-05-20T20:36:39.613Z,12.60
2023-05-20T20:39:08.252Z,12.70
2023-05-20T20:41:38.576Z,12.57
2023-05-20T20:44:08.225Z,12.00
2023-05-20T20:46:37.412Z,12.10
2023-05-20T20:49:04.841Z,12.95
2023-05-20T20:51:32.735Z,12.63
2023-05-20T20:56:27.425Z,12.57
2023-05-20T20:58:57.078Z,14.68
2023-05-20T21:01:25.912Z,13.20
2023-05-20T21:03:54.497Z,13.23
2023-05-20T21:06:22.217Z,12.98
2023-05-20T21:08:49.614Z,14.02
2023-05-20T21:11:17.742Z,12.63
2023-05-20T21:13:45.189Z,14.43
2023-05-20T21:16:12.677Z,14.00
2023-05-20T21:18:41.454Z,12.25
2023-05-20T21:21:12.073Z,14.05
2023-05-20T21:23:39.602Z,13.20
2023-05-20T21:26:07.157Z,14.95
2023-05-20T21:28:34.619Z,14.13
2023-05-20T21:31:02.175Z,14.32
2023-05-20T21:33:29.651Z,15.45
2023-05-20T21:35:58.484Z,13.13
2023-05-20T21:38:25.903Z,14.48
2023-05-20T21:40:53.331Z,14.30
2023-05-20T21:43:20.766Z,15.27
2023-05-20T21:45:48.254Z,14.30
2023-05-20T21:48:16.141Z,14.23
2023-05-20T21:53:12.306Z,13.82
2023-05-20T21:55:39.702Z,13.65
2023-05-20T21:58:07.124Z,13.10
2023-05-20T22:00:34.940Z,13.68
2023-05-20T22:03:02.556Z,13.85
2023-05-20T22:05:30.155Z,13.93
2023-05-20T22:08:00.356Z,14.05
2023-05-20T22:10:29.520Z,14.48
2023-05-20T22:12:58.034Z,13.35
2023-05-20T22:15:26.086Z,14.35
2023-05-20T22:17:54.749Z,15.20
2023-05-20T22:20:22.397Z,14.70
2023-05-20T22:22:49.788Z,14.13
2023-05-20T22:25:17.437Z,14.60
2023-05-20T22:27:46.282Z,14.85
2023-05-20T22:30:13.968Z,16.45
2023-05-20T22:32:41.455Z,14.02
2023-05-20T22:35:09.509Z,14.45
2023-05-20T22:37:37.018Z,14.05
2023-05-20T22:40:04.965Z,14.93
2023-05-20T22:45:01.036Z,13.98
2023-05-20T22:47:28.413Z,15.48
2023-05-20T22:49:57.353Z,15.60
2023-05-20T22:52:25.879Z,14.70
2023-05-20T22:54:53.303Z,13.48
2023-05-20T22:57:20.699Z,14.63
2023-05-20T22:59:48.126Z,13.52
2023-05-20T23:02:16.911Z,13.85
2023-05-20T23:04:44.377Z,14.18
2023-05-20T23:07:14.707Z,13.23
2023-05-20T23:09:42.296Z,14.75
2023-05-20T23:12:09.717Z,14.18
2023-05-20T23:14:37.134Z,13.02
2023-05-20T23:17:04.747Z,12.90
2023-05-20T23:19:33.639Z,13.48
2023-05-20T23:22:01.348Z,13.80
2023-05-20T23:24:28.761Z,12.55
2023-05-20T23:26:56.173Z,12.63
2023-05-20T23:29:23.564Z,12.68
2023-05-20T23:31:51.243Z,13.52
2023-05-20T23:34:18.782Z,12.48
2023-05-20T23:36:47.613Z,12.32
2023-05-20T23:39:16.877Z,12.07
2023-05-20T23:41:45.791Z,12.63
2023-05-20T23:44:13.182Z,11.50
2023-05-20T23:46:41.783Z,12.05
2023-05-20T23:49:10.071Z,12.35
2023-05-20T23:51:37.595Z,11.63
2023-05-20T23:54:06.471Z,12.13
2023-05-20T23:56:33.951Z,11.82
2023-05-20T23:59:01.476Z,11.18
